Time;durP1;ratioP1;P1;durP2;ratioP2;P2;SDS_P1;SDS_P2;PMS_P1;PMS_P2;Temp;Humidity;BMP_temperature;BMP_pressure;BME280_temperature;BME280_humidity;BME280_pressure;Samples;Min_cycle;Max_cycle;Signal;HPM_P1;HPM_P2
2024/03/25 00:01:33;;;;;;;1.30;1.15;;;4.50;99.90;;;;;;5072863;28;20020;-83
2024/03/25 00:03:59;;;;;;;1.42;0.77;;;4.50;99.90;;;;;;5074196;28;20013;-83
2024/03/25 00:06:24;;;;;;;0.77;0.77;;;4.50;99.90;;;;;;5072688;28;20078;-83
2024/03/25 00:08:50;;;;;;;2.53;1.15;;;4.50;99.90;;;;;;5076773;28;20409;-83
2024/03/25 00:11:16;;;;;;;0.90;0.90;;;4.50;99.90;;;;;;5075469;28;20047;-84
2024/03/25 00:13:42;;;;;;;1.00;0.90;;;4.50;99.90;;;;;;5075040;28;20480;-85
2024/03/25 00:16:08;;;;;;;0.77;0.70;;;4.60;99.90;;;;;;5075983;28;20107;-84
2024/03/25 00:18:33;;;;;;;1.10;0.80;;;4.60;99.90;;;;;;5078462;28;20020;-84
2024/03/25 00:20:59;;;;;;;0.73;0.70;;;4.60;99.90;;;;;;5077700;28;20096;-86
2024/03/25 00:23:25;;;;;;;0.85;0.73;;;4.70;99.90;;;;;;5078375;28;20394;-84
2024/03/25 00:25:51;;;;;;;1.13;0.95;;;4.70;99.90;;;;;;5080045;28;20111;-87
2024/03/25 00:28:18;;;;;;;1.10;0.88;;;4.70;99.90;;;;;;5078261;28;20108;-86
2024/03/25 00:30:45;;;;;;;1.13;1.00;;;4.60;99.90;;;;;;5074874;28;20029;-86
2024/03/25 00:33:11;;;;;;;1.08;0.60;;;4.70;99.90;;;;;;5087643;28;20486;-86
2024/03/25 00:35:37;;;;;;;2.28;1.00;;;4.60;99.90;;;;;;5086461;28;20030;-87
2024/03/25 00:38:04;;;;;;;6.07;3.97;;;4.50;99.90;;;;;;5084347;28;20012;-85
2024/03/25 00:40:30;;;;;;;0.75;0.70;;;4.50;99.90;;;;;;5088894;28;20034;-86
2024/03/25 00:42:56;;;;;;;1.10;0.68;;;4.50;99.90;;;;;;5079977;28;20021;-84
2024/03/25 00:45:21;;;;;;;0.63;0.50;;;4.40;99.90;;;;;;5082954;28;20031;-87
2024/03/25 00:47:48;;;;;;;0.60;0.50;;;4.30;99.90;;;;;;5094356;28;20073;-86
2024/03/25 00:50:14;;;;;;;0.70;0.70;;;4.30;99.90;;;;;;5097308;28;20024;-86
2024/03/25 00:52:40;;;;;;;1.48;0.88;;;4.20;99.90;;;;;;5102154;28;20032;-85
2024/03/25 00:55:08;;;;;;;0.45;0.45;;;4.30;99.90;;;;;;5090905;28;20362;-86
2024/03/25 00:57:34;;;;;;;0.52;0.50;;;4.20;99.90;;;;;;5083930;28;20036;-83
2024/03/25 01:00:00;;;;;;;2.45;0.90;;;4.10;99.90;;;;;;5090426;28;20020;-85
2024/03/25 01:02:27;;;;;;;1.65;1.35;;;3.90;99.90;;;;;;5095772;28;20129;-84
2024/03/25 01:04:54;;;;;;;0.60;0.60;;;3.90;99.90;;;;;;5083277;28;20107;-85
2024/03/25 01:07:20;;;;;;;0.82;0.70;;;3.80;99.90;;;;;;5090652;28;20021;-83
2024/03/25 01:09:46;;;;;;;0.57;0.50;;;3.80;99.90;;;;;;5087462;28;20518;-84
2024/03/25 01:12:12;;;;;;;0.70;0.70;;;3.80;99.90;;;;;;5094195;28;20512;-84
2024/03/25 01:14:37;;;;;;;0.52;0.40;;;3.80;99.90;;;;;;5075677;28;20499;-81
2024/03/25 01:17:04;;;;;;;2.00;0.50;;;3.80;99.90;;;;;;5077154;28;20039;-81
2024/03/25 01:19:29;;;;;;;0.50;0.45;;;3.90;99.90;;;;;;5078552;28;20528;-82
2024/03/25 01:21:55;;;;;;;0.80;0.45;;;3.90;99.90;;;;;;5078846;28;20056;-81
2024/03/25 01:24:21;;;;;;;0.60;0.60;;;3.90;99.90;;;;;;5078404;28;20099;-82
2024/03/25 01:26:47;;;;;;;1.00;0.70;;;3.90;99.90;;;;;;5081083;28;20028;-83
2024/03/25 01:29:13;;;;;;;1.63;1.15;;;4.00;99.90;;;;;;5080652;28;20103;-82
2024/03/25 01:31:38;;;;;;;1.05;0.47;;;4.00;99.90;;;;;;5077363;28;20500;-82
2024/03/25 01:34:05;;;;;;;0.52;0.50;;;4.00;99.90;;;;;;5091546;28;20536;-83
2024/03/25 01:36:31;;;;;;;1.85;0.60;;;3.90;99.90;;;;;;5083388;28;20021;-83
2024/03/25 01:38:57;;;;;;;0.52;0.50;;;3.90;99.90;;;;;;5082028;28;20074;-83
2024/03/25 01:41:24;;;;;;;0.63;0.47;;;3.90;99.90;;;;;;5094578;28;20020;-83
2024/03/25 01:43:49;;;;;;;0.65;0.30;;;3.90;99.90;;;;;;5083665;28;20024;-82
2024/03/25 01:46:21;;;;;;;0.70;0.40;;;3.90;99.90;;;;;;5087560;28;20077;-83
2024/03/25 01:48:48;;;;;;;2.00;0.70;;;3.90;99.90;;;;;;5079769;28;20042;-82
2024/03/25 01:51:17;;;;;;;0.47;0.40;;;3.70;99.90;;;;;;5094093;28;20028;-84
2024/03/25 01:53:43;;;;;;;0.30;0.30;;;3.60;99.90;;;;;;5088746;28;20024;-82
2024/03/25 01:56:10;;;;;;;0.52;0.30;;;3.50;99.90;;;;;;5081482;28;20557;-84
2024/03/25 01:58:37;;;;;;;0.40;0.40;;;3.40;99.90;;;;;;5090825;28;20588;-83
2024/03/25 02:01:04;;;;;;;1.55;0.75;;;3.40;99.90;;;;;;5091722;28;20028;-82
2024/03/25 02:03:30;;;;;;;0.75;0.57;;;3.40;99.90;;;;;;5092901;28;20012;-85
2024/03/25 02:06:00;;;;;;;0.20;0.20;;;3.30;99.90;;;;;;5087487;28;20061;-81
2024/03/25 02:08:26;;;;;;;2.05;0.40;;;3.30;99.90;;;;;;5082342;28;20112;-81
2024/03/25 02:10:57;;;;;;;0.30;0.30;;;3.20;99.90;;;;;;5095912;28;20096;-83
2024/03/25 02:13:24;;;;;;;0.85;0.57;;;3.10;99.90;;;;;;5093189;28;20013;-84
2024/03/25 02:15:51;;;;;;;0.40;0.40;;;3.00;99.90;;;;;;5079181;28;20024;-83
2024/03/25 02:18:20;;;;;;;3.10;1.27;;;3.00;99.90;;;;;;5093954;28;20019;-80
2024/03/25 02:20:47;;;;;;;0.90;0.60;;;3.00;99.90;;;;;;5091958;28;20032;-83
2024/03/25 02:23:13;;;;;;;0.65;0.55;;;3.00;99.90;;;;;;5074545;28;20051;-83
2024/03/25 02:25:42;;;;;;;0.38;0.38;;;3.20;99.90;;;;;;5088169;28;20031;-84
2024/03/25 02:28:08;;;;;;;1.58;0.50;;;3.30;99.90;;;;;;5092807;28;20385;-82
2024/03/25 02:30:34;;;;;;;2.78;1.80;;;3.30;99.90;;;;;;5092984;28;20024;-84
2024/03/25 02:33:00;;;;;;;0.50;0.30;;;3.40;99.90;;;;;;5091903;28;20485;-85
2024/03/25 02:35:26;;;;;;;0.40;0.40;;;3.50;99.90;;;;;;5093391;28;20058;-83
2024/03/25 02:37:53;;;;;;;1.92;0.98;;;3.50;99.90;;;;;;5092181;28;20024;-83
2024/03/25 02:40:20;;;;;;;0.88;0.47;;;3.50;99.90;;;;;;5081448;28;20020;-82
2024/03/25 02:42:46;;;;;;;0.73;0.40;;;3.50;99.90;;;;;;5081112;28;20016;-84
2024/03/25 02:45:12;;;;;;;0.57;0.50;;;3.50;99.90;;;;;;5074817;28;20025;-83
2024/03/25 02:47:38;;;;;;;0.40;0.40;;;3.40;99.90;;;;;;5076753;28;20028;-83
2024/03/25 02:50:04;;;;;;;0.40;0.40;;;3.40;99.90;;;;;;5078653;28;20026;-83
2024/03/25 02:52:30;;;;;;;0.43;0.43;;;3.50;99.90;;;;;;5089131;28;20037;-82
2024/03/25 02:54:56;;;;;;;0.38;0.38;;;3.50;99.90;;;;;;5079538;28;20057;-84
2024/03/25 02:57:22;;;;;;;1.83;1.40;;;3.50;99.90;;;;;;5077033;28;20367;-83
2024/03/25 02:59:48;;;;;;;0.30;0.30;;;3.40;99.90;;;;;;5081196;28;20020;-82
2024/03/25 03:02:14;;;;;;;1.13;0.60;;;3.50;99.90;;;;;;5079767;28;20363;-82
2024/03/25 03:04:40;;;;;;;0.65;0.47;;;3.50;99.90;;;;;;5080982;28;20036;-82
2024/03/25 03:07:05;;;;;;;0.43;0.43;;;3.40;99.90;;;;;;5081361;28;20017;-84
2024/03/25 03:09:31;;;;;;;0.55;0.45;;;3.40;99.90;;;;;;5079950;28;20044;-84
2024/03/25 03:11:57;;;;;;;0.85;0.50;;;3.40;99.90;;;;;;5083939;28;20071;-85
2024/03/25 03:14:23;;;;;;;0.63;0.40;;;3.40;99.90;;;;;;5079690;28;20109;-83
2024/03/25 03:16:49;;;;;;;0.88;0.70;;;3.40;99.90;;;;;;5079922;28;20020;-82
2024/03/25 03:19:15;;;;;;;0.57;0.57;;;3.30;99.90;;;;;;5084930;28;20024;-83
2024/03/25 03:21:41;;;;;;;0.45;0.40;;;3.30;99.90;;;;;;5089506;28;20469;-82
2024/03/25 03:24:08;;;;;;;0.68;0.60;;;3.30;99.90;;;;;;5086009;28;20091;-82
2024/03/25 03:26:33;;;;;;;0.85;0.65;;;3.40;99.90;;;;;;5090005;28;20012;-83
2024/03/25 03:28:59;;;;;;;2.90;1.00;;;3.40;99.90;;;;;;5085427;28;20028;-83
2024/03/25 03:31:26;;;;;;;0.80;0.80;;;3.50;99.90;;;;;;5084166;28;20048;-84
2024/03/25 03:33:52;;;;;;;0.43;0.43;;;3.50;99.90;;;;;;5077500;28;20078;-84
2024/03/25 03:36:20;;;;;;;0.65;0.65;;;3.50;99.90;;;;;;5079976;28;20182;-83
2024/03/25 03:38:46;;;;;;;0.80;0.57;;;3.60;99.90;;;;;;5084852;28;20013;-84
2024/03/25 03:41:13;;;;;;;1.00;0.88;;;3.60;99.90;;;;;;5078278;28;20404;-81
2024/03/25 03:43:38;;;;;;;1.08;0.98;;;3.60;99.90;;;;;;5073923;28;20024;-85
2024/03/25 03:46:04;;;;;;;1.23;0.80;;;3.60;99.90;;;;;;5085826;28;20484;-82
2024/03/25 03:48:31;;;;;;;0.70;0.55;;;3.60;99.90;;;;;;5078031;28;20053;-83
2024/03/25 03:50:56;;;;;;;0.93;0.70;;;3.60;99.90;;;;;;5072783;28;20025;-83
2024/03/25 03:53:23;;;;;;;1.48;0.90;;;3.60;99.90;;;;;;5072773;28;20035;-81
2024/03/25 03:55:59;;;;;;;1.25;1.02;;;3.60;99.90;;;;;;5073405;28;20016;-84
2024/03/25 03:58:25;;;;;;;0.88;0.60;;;3.70;99.90;;;;;;5074826;28;20058;-82
2024/03/25 04:00:52;;;;;;;1.15;0.70;;;3.80;99.90;;;;;;5075557;28;20021;-84
2024/03/25 04:03:18;;;;;;;0.77;0.60;;;3.80;99.90;;;;;;5079715;28;20024;-85
2024/03/25 04:05:44;;;;;;;0.75;0.75;;;3.80;99.90;;;;;;5088094;28;20389;-85
2024/03/25 04:08:10;;;;;;;1.13;1.02;;;3.90;99.90;;;;;;5073117;28;20040;-83
2024/03/25 04:10:37;;;;;;;1.50;0.75;;;3.90;99.90;;;;;;5084426;28;20028;-83
2024/03/25 04:13:04;;;;;;;1.00;0.90;;;3.90;99.90;;;;;;5074456;28;20025;-84
2024/03/25 04:15:32;;;;;;;1.00;0.88;;;3.90;99.90;;;;;;5078947;28;20008;-82
2024/03/25 04:17:58;;;;;;;0.95;0.85;;;3.80;99.90;;;;;;5072788;28;20029;-82
2024/03/25 04:20:24;;;;;;;1.15;0.77;;;3.80;99.90;;;;;;5076526;28;20063;-82
2024/03/25 04:22:50;;;;;;;1.05;0.75;;;3.90;99.90;;;;;;5083174;28;20122;-84
2024/03/25 04:25:16;;;;;;;0.60;0.50;;;3.80;99.90;;;;;;5074856;28;20016;-82
2024/03/25 04:27:42;;;;;;;1.08;0.90;;;3.90;99.90;;;;;;5079427;28;20023;-84
2024/03/25 04:30:09;;;;;;;1.15;0.75;;;3.90;99.90;;;;;;5080681;28;20025;-83
2024/03/25 04:32:36;;;;;;;1.50;0.85;;;4.00;99.90;;;;;;5075130;28;20039;-84
2024/03/25 04:35:03;;;;;;;1.17;0.82;;;4.00;99.90;;;;;;5076261;28;20347;-84
2024/03/25 04:37:29;;;;;;;1.45;0.77;;;3.90;99.90;;;;;;5087964;28;20545;-84
2024/03/25 04:39:56;;;;;;;1.20;1.00;;;3.90;99.90;;;;;;5094171;28;20047;-82
2024/03/25 04:42:22;;;;;;;0.90;0.80;;;3.80;99.90;;;;;;5075067;28;20028;-83
2024/03/25 04:44:49;;;;;;;1.17;0.80;;;3.90;99.90;;;;;;5074545;28;20031;-83
2024/03/25 04:47:15;;;;;;;3.22;0.90;;;4.00;99.90;;;;;;5081962;28;20032;-82
2024/03/25 04:49:41;;;;;;;1.38;0.98;;;4.00;99.90;;;;;;5089016;28;20033;-81
2024/03/25 04:52:07;;;;;;;2.05;1.05;;;4.00;99.90;;;;;;5088673;28;20055;-83
2024/03/25 04:54:33;;;;;;;0.75;0.73;;;4.00;99.90;;;;;;5092072;28;20027;-83
2024/03/25 04:56:59;;;;;;;1.10;0.80;;;4.00;99.90;;;;;;5093288;28;20473;-82
2024/03/25 04:59:25;;;;;;;1.67;1.15;;;4.10;99.90;;;;;;5092676;28;20431;-83
2024/03/25 05:01:51;;;;;;;1.50;0.77;;;4.20;99.90;;;;;;5089470;28;20382;-82
2024/03/25 05:04:18;;;;;;;1.67;1.27;;;4.10;99.90;;;;;;5089542;28;20097;-81
2024/03/25 05:06:44;;;;;;;1.15;1.00;;;4.20;99.90;;;;;;5088353;28;20028;-81
2024/03/25 05:09:10;;;;;;;0.85;0.82;;;4.20;99.90;;;;;;5090525;28;20051;-82
2024/03/25 05:11:36;;;;;;;1.67;1.25;;;4.20;99.90;;;;;;5078334;28;20082;-82
2024/03/25 05:14:05;;;;;;;2.97;1.10;;;4.20;99.90;;;;;;5083483;28;20025;-81
2024/03/25 05:16:30;;;;;;;1.42;0.85;;;4.10;99.90;;;;;;5071819;28;20466;-82
2024/03/25 05:18:56;;;;;;;2.58;1.35;;;4.20;99.90;;;;;;5072291;28;20070;-82
2024/03/25 05:21:22;;;;;;;1.48;1.23;;;4.30;99.90;;;;;;5078203;28;20035;-81
2024/03/25 05:23:47;;;;;;;3.85;1.40;;;4.40;99.90;;;;;;5077696;28;20504;-81
2024/03/25 05:26:16;;;;;;;2.47;1.25;;;4.50;99.90;;;;;;5077420;28;20024;-82
2024/03/25 05:28:42;;;;;;;1.48;1.13;;;4.60;99.90;;;;;;5078738;28;20091;-82
2024/03/25 05:31:08;;;;;;;2.60;1.50;;;4.70;99.90;;;;;;5075398;28;20496;-83
2024/03/25 05:33:35;;;;;;;2.23;1.33;;;4.60;99.80;;;;;;5079502;28;20059;-83
2024/03/25 05:36:01;;;;;;;3.47;1.23;;;4.70;99.70;;;;;;5081485;28;20020;-82
2024/03/25 05:38:28;;;;;;;2.42;1.15;;;4.70;99.40;;;;;;5074669;28;20016;-83
2024/03/25 05:40:54;;;;;;;2.83;1.02;;;4.80;99.30;;;;;;5089846;28;20098;-82
2024/03/25 05:43:20;;;;;;;2.35;1.15;;;4.90;99.30;;;;;;5086722;28;20020;-82
2024/03/25 05:45:55;;;;;;;3.13;1.48;;;5.00;98.80;;;;;;5083899;28;20093;-82
2024/03/25 05:48:21;;;;;;;2.38;1.73;;;5.10;98.60;;;;;;5083323;28;20065;-81
2024/03/25 05:51:09;;;;;;;5.72;2.08;;;5.20;98.10;;;;;;5081861;28;20037;-82
2024/03/25 05:53:35;;;;;;;3.95;2.03;;;5.20;98.00;;;;;;5084333;28;20033;-83
2024/03/25 05:56:01;;;;;;;2.40;1.65;;;5.20;97.90;;;;;;5089358;28;20016;-83
2024/03/25 05:58:27;;;;;;;1.50;1.30;;;5.20;97.70;;;;;;5088283;28;20027;-81
2024/03/25 06:00:53;;;;;;;5.47;1.55;;;5.30;97.60;;;;;;5094910;28;20012;-81
2024/03/25 06:03:19;;;;;;;3.80;1.35;;;5.40;97.60;;;;;;5095424;28;20081;-83
2024/03/25 06:05:46;;;;;;;4.20;1.85;;;5.50;97.60;;;;;;5092674;28;20016;-82
2024/03/25 06:08:26;;;;;;;2.65;1.45;;;5.80;97.60;;;;;;5094060;28;20047;-82
2024/03/25 06:10:53;;;;;;;1.35;1.17;;;5.90;96.50;;;;;;5094334;28;20040;-81
2024/03/25 06:13:20;;;;;;;3.97;1.60;;;6.10;96.30;;;;;;5095673;28;20472;-81
2024/03/25 06:15:46;;;;;;;;;;;6.10;95.80;;;;;;5093288;28;20020;-82
2024/03/25 06:18:12;;;;;;;1.73;1.42;;;6.10;96.10;;;;;;5083413;28;19912;-82
2024/03/25 06:20:38;;;;;;;4.18;1.50;;;6.10;95.40;;;;;;5090251;28;20092;-82
2024/03/25 06:23:05;;;;;;;2.40;1.40;;;6.00;95.20;;;;;;5090833;28;20047;-82
2024/03/25 06:25:31;;;;;;;2.58;1.52;;;6.00;95.50;;;;;;5093159;28;20028;-82
2024/03/25 06:27:57;;;;;;;4.80;2.33;;;5.90;95.30;;;;;;5074403;28;20112;-83
2024/03/25 06:35:52;;;;;;;2.03;1.35;;;6.40;94.80;;;;;;5076793;28;20058;-83
2024/03/25 06:38:18;;;;;;;2.30;1.70;;;6.30;93.60;;;;;;5077625;28;20024;-83
2024/03/25 06:40:45;;;;;;;2.03;1.45;;;6.20;93.60;;;;;;5094956;28;20063;-84
2024/03/25 06:43:11;;;;;;;2.58;2.05;;;6.10;93.90;;;;;;5078420;28;20023;-84
2024/03/25 06:45:37;;;;;;;2.35;1.50;;;5.90;93.90;;;;;;5073758;28;20032;-84
2024/03/25 06:48:03;;;;;;;3.03;1.90;;;5.70;94.20;;;;;;5075385;28;20028;-85
2024/03/25 06:50:29;;;;;;;3.17;2.38;;;5.60;94.50;;;;;;5074956;28;20051;-85
2024/03/25 06:52:55;;;;;;;4.05;1.85;;;5.60;95.00;;;;;;5075287;28;20029;-82
2024/03/25 06:55:22;;;;;;;5.88;1.95;;;5.60;95.00;;;;;;5076459;28;20025;-81
2024/03/25 06:57:51;;;;;;;1.90;1.45;;;5.60;94.90;;;;;;5074203;28;20050;-84
2024/03/25 07:00:17;;;;;;;3.33;1.98;;;5.60;94.60;;;;;;5076419;28;20074;-82
2024/03/25 07:02:43;;;;;;;4.20;2.22;;;5.90;94.70;;;;;;5076611;28;20112;-83
2024/03/25 07:05:09;;;;;;;4.35;1.70;;;6.30;94.30;;;;;;5086340;28;20063;-83
2024/03/25 07:07:35;;;;;;;3.08;1.65;;;6.70;93.60;;;;;;5085244;28;20067;-83
2024/03/25 07:10:04;;;;;;;5.97;2.20;;;7.00;93.10;;;;;;5093057;28;20569;-81
2024/03/25 07:12:29;;;;;;;2.22;1.30;;;7.10;91.90;;;;;;5083835;28;20033;-82
2024/03/25 07:14:55;;;;;;;1.52;1.17;;;6.80;91.30;;;;;;5085595;28;20107;-83
2024/03/25 07:17:21;;;;;;;3.45;2.00;;;6.50;91.60;;;;;;5085947;28;20435;-84
2024/03/25 07:19:48;;;;;;;3.88;1.92;;;6.50;92.10;;;;;;5085053;28;20481;-81
2024/03/25 07:22:24;;;;;;;5.10;1.60;;;6.50;92.30;;;;;;5082469;28;20016;-84
2024/03/25 07:24:55;;;;;;;3.60;3.00;;;6.90;92.40;;;;;;5074058;28;20039;-83
2024/03/25 07:27:21;;;;;;;7.38;2.38;;;8.50;92.90;;;;;;5076420;28;20461;-82
2024/03/25 07:29:47;;;;;;;2.42;1.58;;;9.50;88.30;;;;;;5078753;28;20021;-83
2024/03/25 07:32:13;;;;;;;5.07;1.70;;;10.00;87.10;;;;;;5082473;28;20032;-84
2024/03/25 07:34:41;;;;;;;4.20;1.95;;;10.60;84.30;;;;;;5079256;28;20031;-86
2024/03/25 07:37:07;;;;;;;3.72;1.25;;;11.10;81.10;;;;;;5084992;28;20031;-84
2024/03/25 07:39:33;;;;;;;3.53;1.35;;;11.00;77.50;;;;;;5074690;28;20111;-83
2024/03/25 07:41:59;;;;;;;5.97;2.10;;;10.50;77.20;;;;;;5092713;28;20032;-85
2024/03/25 07:44:25;;;;;;;7.90;1.40;;;9.80;78.30;;;;;;5080399;28;20366;-85
2024/03/25 07:47:17;;;;;;;2.10;1.33;;;9.30;79.50;;;;;;5076339;28;20437;-86
2024/03/25 07:49:43;;;;;;;5.63;1.75;;;8.80;80.60;;;;;;5088841;28;20025;-83
2024/03/25 07:52:11;;;;;;;6.53;2.22;;;8.50;81.70;;;;;;5072698;28;20082;-84
2024/03/25 07:54:37;;;;;;;4.93;1.83;;;8.80;85.40;;;;;;5073095;28;20089;-84
2024/03/25 07:57:44;;;;;;;3.63;1.77;;;10.90;82.40;;;;;;5079486;28;20024;-87
2024/03/25 08:03:33;;;;;;;3.13;2.00;;;11.90;74.50;;;;;;5081305;28;20074;-83
2024/03/25 08:05:59;;;;;;;4.65;2.10;;;;;;;;;;5084412;28;20043;-84
2024/03/25 08:08:31;;;;;;;3.17;1.90;;;15.00;64.80;;;;;;5080054;28;20036;-84
2024/03/25 08:11:03;;;;;;;2.75;1.67;;;16.50;63.40;;;;;;5073233;28;20039;-84
2024/03/25 08:13:52;;;;;;;5.65;2.83;;;17.50;57.80;;;;;;5084213;28;20073;-87
2024/03/25 08:16:19;;;;;;;3.80;1.85;;;17.10;57.60;;;;;;5086163;28;20032;-84
2024/03/25 08:18:48;;;;;;;8.65;2.33;;;16.30;55.30;;;;;;5077775;28;20100;-81
2024/03/25 08:21:14;;;;;;;5.30;2.15;;;15.00;57.00;;;;;;5091456;28;20039;-92
2024/03/25 08:23:40;;;;;;;4.88;1.75;;;13.50;59.50;;;;;;5079321;28;20040;-89
2024/03/25 08:26:06;;;;;;;4.38;1.90;;;12.70;61.50;;;;;;5086154;28;20035;-86
2024/03/25 08:28:32;;;;;;;6.47;2.20;;;11.90;63.40;;;;;;5082792;28;20140;-84
2024/03/25 08:30:58;;;;;;;3.65;2.08;;;11.20;65.10;;;;;;5074539;28;20452;-84
2024/03/25 08:33:24;;;;;;;5.60;2.45;;;10.50;66.70;;;;;;5079607;28;20060;-86
2024/03/25 08:35:50;;;;;;;6.80;2.55;;;9.90;69.00;;;;;;5075194;28;20039;-83
2024/03/25 08:38:16;;;;;;;5.15;2.17;;;9.50;71.10;;;;;;5072860;28;20021;-85
2024/03/25 08:40:42;;;;;;;7.57;2.92;;;9.70;72.60;;;;;;5088434;28;20042;-87
2024/03/25 08:43:08;;;;;;;5.90;2.17;;;9.80;71.70;;;;;;5081775;28;20103;-85
2024/03/25 08:45:33;;;;;;;7.80;2.33;;;9.80;71.30;;;;;;5078896;28;20023;-86
2024/03/25 08:47:59;;;;;;;8.13;2.55;;;9.60;72.10;;;;;;5079376;28;20469;-87
2024/03/25 08:50:25;;;;;;;7.97;2.78;;;9.40;72.80;;;;;;5076442;28;20016;-88
2024/03/25 08:52:51;;;;;;;6.13;2.78;;;9.30;73.10;;;;;;5073471;28;20021;-87
2024/03/25 08:55:17;;;;;;;6.78;2.30;;;9.50;74.40;;;;;;5074881;28;20052;-87
2024/03/25 08:57:42;;;;;;;3.47;2.00;;;11.10;74.00;;;;;;5076367;28;20049;-86
2024/03/25 09:00:10;;;;;;;4.55;2.60;;;12.30;68.10;;;;;;5076683;28;20088;-87
2024/03/25 09:02:38;;;;;;;7.28;2.92;;;11.70;66.00;;;;;;5076926;28;20044;-88
2024/03/25 09:05:10;;;;;;;6.78;2.90;;;11.50;68.90;;;;;;5076851;28;20032;-87
2024/03/25 09:07:36;;;;;;;6.70;2.95;;;13.00;68.70;;;;;;5075851;28;20040;-87
2024/03/25 09:12:47;;;;;;;8.88;3.65;;;15.60;60.50;;;;;;5079017;28;20438;-88
2024/03/25 09:15:14;;;;;;;4.38;2.53;;;15.90;56.20;;;;;;5074812;28;20128;-86
2024/03/25 09:17:40;;;;;;;5.70;2.15;;;15.70;55.90;;;;;;5076486;28;20099;-87
2024/03/25 09:20:39;;;;;;;5.20;2.03;;;15.40;57.10;;;;;;5080774;28;20505;-89
2024/03/25 09:22:58;;;;;;;7.13;2.63;;;;;;;;;;5084412;28;20036;-88
2024/03/25 09:25:24;;;;;;;4.80;1.80;;;17.40;55.10;;;;;;5082326;28;20043;-90
2024/03/25 09:27:51;;;;;;;7.97;3.25;;;19.00;52.30;;;;;;5077562;28;20016;-90
2024/03/25 09:30:20;;;;;;;3.77;2.10;;;21.00;50.50;;;;;;5087357;28;20060;-91
2024/03/25 09:32:46;;;;;;;8.35;2.22;;;21.40;46.50;;;;;;5085154;28;20012;-89
2024/03/25 09:35:12;;;;;;;6.10;2.42;;;20.60;46.20;;;;;;5087301;28;20381;-90
2024/03/25 09:37:38;;;;;;;5.88;2.25;;;20.60;45.60;;;;;;5082704;28;20501;-86
2024/03/25 09:40:05;;;;;;;6.60;2.22;;;20.60;45.50;;;;;;5083146;28;20082;-89
2024/03/25 09:42:56;;;;;;;6.72;2.53;;;21.00;44.80;;;;;;5095569;28;20033;-87
2024/03/25 09:45:25;;;;;;;9.98;6.75;;;20.80;45.30;;;;;;5075171;28;20103;-87
2024/03/25 09:47:51;;;;;;;4.50;1.80;;;20.50;44.90;;;;;;5075314;28;20028;-87
2024/03/25 09:50:20;;;;;;;3.93;2.50;;;20.80;45.00;;;;;;5092245;28;20067;-87
2024/03/25 09:52:46;;;;;;;3.90;1.98;;;21.50;43.60;;;;;;5083273;28;20362;-86
2024/03/25 09:55:12;;;;;;;6.03;2.42;;;22.00;42.10;;;;;;5079834;28;20073;-89
2024/03/25 09:57:40;;;;;;;3.92;1.80;;;21.30;42.70;;;;;;5087259;28;20063;-85
2024/03/25 10:00:11;;;;;;;5.35;2.20;;;21.90;41.60;;;;;;5089464;28;20016;-85
2024/03/25 10:02:38;;;;;;;6.32;1.90;;;21.60;41.10;;;;;;5072548;28;20047;-88
2024/03/25 10:05:06;;;;;;;3.58;1.60;;;21.70;40.50;;;;;;5077630;28;20051;-87
2024/03/25 10:07:32;;;;;;;7.43;2.35;;;20.80;41.50;;;;;;5075900;28;20492;-84
2024/03/25 10:09:58;;;;;;;4.20;1.88;;;20.80;42.20;;;;;;5088109;28;20485;-85
2024/03/25 10:12:28;;;;;;;6.28;2.47;;;21.50;41.60;;;;;;5081441;28;20051;-85
2024/03/25 10:14:54;;;;;;;5.68;2.05;;;22.10;40.80;;;;;;5078128;28;20024;-87
2024/03/25 10:17:19;;;;;;;4.43;2.50;;;21.60;40.40;;;;;;5076834;28;20461;-90
2024/03/25 10:19:46;;;;;;;3.28;2.35;;;20.50;42.90;;;;;;5080802;28;20025;-92
2024/03/25 10:22:11;;;;;;;14.98;7.95;;;21.20;42.70;;;;;;5088993;28;20032;-87
2024/03/25 10:24:45;;;;;;;6.22;3.10;;;20.50;41.90;;;;;;5078483;28;20554;-91
2024/03/25 10:27:19;;;;;;;3.72;2.20;;;18.80;43.50;;;;;;5096115;28;20186;-88
2024/03/25 10:29:46;;;;;;;6.43;2.40;;;17.20;45.80;;;;;;5079737;28;20047;-87
2024/03/25 10:32:14;;;;;;;10.33;3.13;;;15.60;48.30;;;;;;5076032;28;20481;-87
2024/03/25 10:34:39;;;;;;;;;;;14.40;50.70;;;;;;5077112;28;20108;-89
2024/03/25 10:37:08;;;;;;;5.30;2.75;;;13.70;51.40;;;;;;5089094;28;19915;-88
2024/03/25 10:40:00;;;;;;;3.90;2.40;;;13.10;53.60;;;;;;5085717;28;20654;-83
2024/03/25 10:42:26;;;;;;;7.70;2.60;;;12.50;54.90;;;;;;5095309;28;20192;-86
2024/03/25 10:44:52;;;;;;;8.00;3.25;;;11.80;56.30;;;;;;5079742;28;20008;-89
2024/03/25 10:47:25;;;;;;;7.82;2.97;;;11.30;58.10;;;;;;5088747;28;20585;-88
2024/03/25 10:49:58;;;;;;;11.73;3.15;;;10.90;59.10;;;;;;5096309;28;20016;-90
2024/03/25 10:52:29;;;;;;;13.50;3.63;;;10.50;60.40;;;;;;5096316;28;20357;-87
2024/03/25 10:54:56;;;;;;;8.15;2.60;;;10.30;60.90;;;;;;5083631;28;20051;-93
2024/03/25 10:57:22;;;;;;;6.68;2.65;;;10.10;61.00;;;;;;5090496;28;20012;-87
2024/03/25 10:59:49;;;;;;;5.17;3.13;;;10.00;61.60;;;;;;5083632;28;20119;-86
2024/03/25 11:02:17;;;;;;;7.27;3.70;;;9.90;61.80;;;;;;5076759;28;20657;-91
2024/03/25 11:04:44;;;;;;;6.75;3.47;;;9.90;62.60;;;;;;5078923;28;20270;-89
2024/03/25 11:07:13;;;;;;;5.07;3.30;;;9.70;63.40;;;;;;5090371;28;20020;-88
2024/03/25 11:09:43;;;;;;;6.05;2.83;;;9.60;64.20;;;;;;5076124;28;20079;-90
2024/03/25 11:12:15;;;;;;;7.85;3.20;;;9.40;64.90;;;;;;5087817;28;20078;-91
2024/03/25 11:14:43;;;;;;;7.63;4.10;;;9.10;65.50;;;;;;5084680;28;20353;-89
2024/03/25 11:17:15;;;;;;;4.18;2.63;;;8.90;67.00;;;;;;5077835;28;20025;-90
2024/03/25 11:19:41;;;;;;;7.47;3.35;;;8.90;67.20;;;;;;5075011;28;20017;-88
2024/03/25 11:22:10;;;;;;;10.07;3.30;;;8.60;68.60;;;;;;5085715;28;20103;-92
2024/03/25 11:24:40;;;;;;;5.22;2.70;;;8.60;70.20;;;;;;5082066;28;20025;-90
2024/03/25 11:27:09;;;;;;;7.30;3.15;;;8.80;69.90;;;;;;5075463;28;20043;-88
2024/03/25 11:29:35;;;;;;;9.30;3.60;;;8.90;69.70;;;;;;5074889;28;20021;-91
2024/03/25 11:32:05;;;;;;;8.98;4.93;;;9.10;69.60;;;;;;5079057;28;20020;-87
2024/03/25 11:34:31;;;;;;;4.88;2.70;;;9.20;69.00;;;;;;5085339;28;20462;-89
2024/03/25 11:36:58;;;;;;;7.18;2.78;;;9.10;67.80;;;;;;5091383;28;20044;-88
2024/03/25 11:39:28;;;;;;;9.32;3.13;;;9.00;68.40;;;;;;5086404;28;20036;-90
2024/03/25 11:41:54;;;;;;;10.80;3.00;;;8.90;69.10;;;;;;5085387;28;20073;-89
2024/03/25 11:44:23;;;;;;;8.07;3.20;;;8.80;68.80;;;;;;5087716;28;20024;-88
2024/03/25 11:46:53;;;;;;;12.02;3.75;;;8.70;70.00;;;;;;5095172;28;20384;-89
2024/03/25 11:49:24;;;;;;;14.68;3.92;;;8.70;69.80;;;;;;5101630;28;20024;-88
2024/03/25 11:51:51;;;;;;;10.15;3.28;;;8.60;69.80;;;;;;5102222;28;20016;-85
2024/03/25 11:54:18;;;;;;;7.15;2.92;;;8.40;70.00;;;;;;5088073;28;20028;-85
2024/03/25 11:56:45;;;;;;;10.93;3.72;;;8.20;70.30;;;;;;5093125;28;20024;-86
2024/03/25 11:59:14;;;;;;;7.13;2.70;;;7.90;70.60;;;;;;5087244;28;20021;-87
2024/03/25 12:01:40;;;;;;;6.82;2.60;;;7.90;71.20;;;;;;5089468;28;20393;-84
2024/03/25 12:04:19;;;;;;;7.60;3.25;;;7.90;71.90;;;;;;5094703;28;20035;-85
2024/03/25 12:06:56;;;;;;;9.35;3.22;;;7.90;71.70;;;;;;5090922;28;20105;-85
2024/03/25 12:12:07;;;;;;;6.45;3.10;;;8.00;71.80;;;;;;5089971;28;19895;-88
2024/03/25 12:14:34;;;;;;;7.25;3.30;;;8.00;71.80;;;;;;5088561;28;20724;-88
2024/03/25 12:17:00;;;;;;;5.57;3.50;;;8.00;72.00;;;;;;5080422;28;20024;-88
2024/03/25 12:19:26;;;;;;;8.73;3.20;;;8.00;71.80;;;;;;5080662;28;20067;-89
2024/03/25 12:22:03;;;;;;;6.78;2.58;;;8.00;71.50;;;;;;5081729;28;20028;-87
2024/03/25 12:24:29;;;;;;;6.03;3.40;;;7.90;72.20;;;;;;5082775;28;20024;-87
2024/03/25 12:26:55;;;;;;;7.25;3.55;;;7.90;72.10;;;;;;5080211;28;20070;-87
2024/03/25 12:29:21;;;;;;;10.88;3.60;;;8.00;72.10;;;;;;5081230;28;20296;-89
2024/03/25 12:32:03;;;;;;;8.93;3.63;;;8.10;71.80;;;;;;5083574;28;20174;-86
2024/03/25 12:34:29;;;;;;;8.13;3.72;;;8.40;71.80;;;;;;5087906;28;20056;-89
2024/03/25 12:37:04;;;;;;;6.40;3.35;;;8.60;70.80;;;;;;5078112;28;20040;-88
2024/03/25 12:39:34;;;;;;;5.55;3.30;;;8.70;70.40;;;;;;5088246;28;20074;-87
2024/03/25 12:42:04;;;;;;;8.95;3.22;;;8.70;70.30;;;;;;5089510;28;20173;-91
2024/03/25 12:44:32;;;;;;;6.70;3.83;;;8.80;69.70;;;;;;5095000;28;20169;-91
2024/03/25 12:47:00;;;;;;;11.50;4.03;;;8.80;69.90;;;;;;5075400;28;20127;-92
2024/03/25 12:49:26;;;;;;;8.65;3.30;;;8.70;69.80;;;;;;5089908;28;20043;-90
2024/03/25 12:51:53;;;;;;;7.72;3.42;;;8.60;70.00;;;;;;5089407;28;20016;-90
2024/03/25 12:54:19;;;;;;;12.25;3.45;;;8.50;69.90;;;;;;5085989;28;20542;-92
2024/03/25 12:56:45;;;;;;;9.43;3.45;;;8.40;70.60;;;;;;5093813;28;20032;-87
2024/03/25 12:59:11;;;;;;;8.50;4.65;;;8.30;70.90;;;;;;5078457;28;20042;-87
2024/03/25 13:01:37;;;;;;;7.25;4.90;;;8.30;71.00;;;;;;5078996;28;20097;-86
2024/03/25 13:04:06;;;;;;;10.10;4.10;;;8.20;72.00;;;;;;5080008;28;20021;-87
2024/03/25 13:06:32;;;;;;;9.65;4.32;;;8.10;71.70;;;;;;5079020;28;20024;-89
2024/03/25 13:08:58;;;;;;;12.48;4.82;;;8.10;72.20;;;;;;5071391;28;20044;-87
2024/03/25 13:11:24;;;;;;;8.20;3.45;;;8.10;72.50;;;;;;5073571;28;20028;-88